sensor_id;sensor_type;location;lat;lon;timestamp;P1;durP1;ratioP1;P2;durP2;ratioP2
67997;SDS011;54773;53.388;-1.504;2023-09-30T00:00:28;11.02;;;1.92;;
67997;SDS011;54773;53.388;-1.504;2023-09-30T00:03:12;9.57;;;1.73;;
67997;SDS011;54773;53.388;-1.504;2023-09-30T00:05:56;10.65;;;2.30;;
67997;SDS011;54773;53.388;-1.504;2023-09-30T00:08:40;7.43;;;1.80;;
67997;SDS011;54773;53.388;-1.504;2023-09-30T00:11:27;6.95;;;1.50;;
67997;SDS011;54773;53.388;-1.504;2023-09-30T00:14:10;9.33;;;2.23;;
67997;SDS011;54773;53.388;-1.504;2023-09-30T00:16:54;7.22;;;1.60;;
67997;SDS011;54773;53.388;-1.504;2023-09-30T00:19:39;10.45;;;2.40;;
67997;SDS011;54773;53.388;-1.504;2023-09-30T00:22:23;9.55;;;1.75;;
67997;SDS011;54773;53.388;-1.504;2023-09-30T00:25:07;9.27;;;1.50;;
67997;SDS011;54773;53.388;-1.504;2023-09-30T00:27:51;7.97;;;1.45;;
67997;SDS011;54773;53.388;-1.504;2023-09-30T00:30:35;8.50;;;1.73;;
67997;SDS011;54773;53.388;-1.504;2023-09-30T00:33:20;10.48;;;1.80;;
67997;SDS011;54773;53.388;-1.504;2023-09-30T00:36:07;11.10;;;2.00;;
67997;SDS011;54773;53.388;-1.504;2023-09-30T00:38:52;15.60;;;2.40;;
67997;SDS011;54773;53.388;-1.504;2023-09-30T00:41:39;10.93;;;1.85;;
67997;SDS011;54773;53.388;-1.504;2023-09-30T00:44:26;10.98;;;1.88;;
67997;SDS011;54773;53.388;-1.504;2023-09-30T00:47:10;7.78;;;1.95;;
67997;SDS011;54773;53.388;-1.504;2023-09-30T00:49:55;9.90;;;1.80;;
67997;SDS011;54773;53.388;-1.504;2023-09-30T00:52:39;13.68;;;2.10;;
67997;SDS011;54773;53.388;-1.504;2023-09-30T00:55:27;7.07;;;1.55;;
67997;SDS011;54773;53.388;-1.504;2023-09-30T00:58:11;11.52;;;2.47;;
67997;SDS011;54773;53.388;-1.504;2023-09-30T01:00:58;11.15;;;1.80;;
67997;SDS011;54773;53.388;-1.504;2023-09-30T01:03:46;9.48;;;2.05;;
67997;SDS011;54773;53.388;-1.504;2023-09-30T01:06:33;13.20;;;2.42;;
67997;SDS011;54773;53.388;-1.504;2023-09-30T01:09:17;10.20;;;1.40;;
67997;SDS011;54773;53.388;-1.504;2023-09-30T01:12:01;10.77;;;1.83;;
67997;SDS011;54773;53.388;-1.504;2023-09-30T01:14:45;9.68;;;2.33;;
67997;SDS011;54773;53.388;-1.504;2023-09-30T01:17:29;7.67;;;1.60;;
67997;SDS011;54773;53.388;-1.504;2023-09-30T01:20:14;5.57;;;1.83;;
67997;SDS011;54773;53.388;-1.504;2023-09-30T01:23:00;7.80;;;1.77;;
67997;SDS011;54773;53.388;-1.504;2023-09-30T01:25:46;17.67;;;2.10;;
67997;SDS011;54773;53.388;-1.504;2023-09-30T01:28:30;10.97;;;1.70;;
67997;SDS011;54773;53.388;-1.504;2023-09-30T01:31:15;9.23;;;2.00;;
67997;SDS011;54773;53.388;-1.504;2023-09-30T01:33:59;8.80;;;1.95;;
67997;SDS011;54773;53.388;-1.504;2023-09-30T01:36:43;6.78;;;1.60;;
67997;SDS011;54773;53.388;-1.504;2023-09-30T01:39:28;10.88;;;1.83;;
67997;SDS011;54773;53.388;-1.504;2023-09-30T01:42:16;11.63;;;2.58;;
67997;SDS011;54773;53.388;-1.504;2023-09-30T01:45:00;5.85;;;1.92;;
67997;SDS011;54773;53.388;-1.504;2023-09-30T01:47:45;8.23;;;1.73;;
67997;SDS011;54773;53.388;-1.504;2023-09-30T01:50:29;9.90;;;1.90;;
67997;SDS011;54773;53.388;-1.504;2023-09-30T01:53:14;14.00;;;2.72;;
67997;SDS011;54773;53.388;-1.504;2023-09-30T01:55:58;9.63;;;2.00;;
67997;SDS011;54773;53.388;-1.504;2023-09-30T01:58:42;15.95;;;2.47;;
67997;SDS011;54773;53.388;-1.504;2023-09-30T02:01:29;12.75;;;2.25;;
67997;SDS011;54773;53.388;-1.504;2023-09-30T02:04:13;13.25;;;2.53;;
67997;SDS011;54773;53.388;-1.504;2023-09-30T02:06:58;10.35;;;2.35;;
67997;SDS011;54773;53.388;-1.504;2023-09-30T02:09:43;12.13;;;2.30;;
67997;SDS011;54773;53.388;-1.504;2023-09-30T02:12:28;15.23;;;2.25;;
67997;SDS011;54773;53.388;-1.504;2023-09-30T02:15:12;14.10;;;2.55;;
67997;SDS011;54773;53.388;-1.504;2023-09-30T02:17:56;11.63;;;1.92;;
67997;SDS011;54773;53.388;-1.504;2023-09-30T02:23:25;9.68;;;1.90;;
67997;SDS011;54773;53.388;-1.504;2023-09-30T02:26:09;13.95;;;2.20;;
67997;SDS011;54773;53.388;-1.504;2023-09-30T02:28:56;10.10;;;1.70;;
67997;SDS011;54773;53.388;-1.504;2023-09-30T02:31:45;9.25;;;2.42;;
67997;SDS011;54773;53.388;-1.504;2023-09-30T02:34:30;9.65;;;2.00;;
67997;SDS011;54773;53.388;-1.504;2023-09-30T02:37:14;12.50;;;2.47;;
67997;SDS011;54773;53.388;-1.504;2023-09-30T02:39:58;10.70;;;1.97;;
67997;SDS011;54773;53.388;-1.504;2023-09-30T02:42:42;13.82;;;2.38;;
67997;SDS011;54773;53.388;-1.504;2023-09-30T02:45:29;10.05;;;2.28;;
67997;SDS011;54773;53.388;-1.504;2023-09-30T02:48:13;10.50;;;2.50;;
67997;SDS011;54773;53.388;-1.504;2023-09-30T02:50:57;11.50;;;2.50;;
67997;SDS011;54773;53.388;-1.504;2023-09-30T02:53:42;15.00;;;2.80;;
67997;SDS011;54773;53.388;-1.504;2023-09-30T02:56:30;12.98;;;2.83;;
67997;SDS011;54773;53.388;-1.504;2023-09-30T02:59:14;12.73;;;2.47;;
67997;SDS011;54773;53.388;-1.504;2023-09-30T03:02:00;11.32;;;2.70;;
67997;SDS011;54773;53.388;-1.504;2023-09-30T03:04:48;7.30;;;2.03;;
67997;SDS011;54773;53.388;-1.504;2023-09-30T03:07:33;9.32;;;2.40;;
67997;SDS011;54773;53.388;-1.504;2023-09-30T03:10:18;9.45;;;2.13;;
67997;SDS011;54773;53.388;-1.504;2023-09-30T03:13:07;11.98;;;2.42;;
67997;SDS011;54773;53.388;-1.504;2023-09-30T03:15:52;8.07;;;1.80;;
67997;SDS011;54773;53.388;-1.504;2023-09-30T03:18:40;7.80;;;1.70;;
67997;SDS011;54773;53.388;-1.504;2023-09-30T03:21:24;10.73;;;2.13;;
67997;SDS011;54773;53.388;-1.504;2023-09-30T03:24:11;12.00;;;2.22;;
67997;SDS011;54773;53.388;-1.504;2023-09-30T03:26:56;10.40;;;2.10;;
67997;SDS011;54773;53.388;-1.504;2023-09-30T03:29:43;12.10;;;2.58;;
67997;SDS011;54773;53.388;-1.504;2023-09-30T03:32:28;11.98;;;2.50;;
67997;SDS011;54773;53.388;-1.504;2023-09-30T03:35:13;10.10;;;2.10;;
67997;SDS011;54773;53.388;-1.504;2023-09-30T03:38:05;11.13;;;2.83;;
67997;SDS011;54773;53.388;-1.504;2023-09-30T03:40:50;18.08;;;3.17;;
67997;SDS011;54773;53.388;-1.504;2023-09-30T03:43:37;10.57;;;2.30;;
67997;SDS011;54773;53.388;-1.504;2023-09-30T03:46:27;8.13;;;2.20;;
67997;SDS011;54773;53.388;-1.504;2023-09-30T03:49:10;10.07;;;1.80;;
67997;SDS011;54773;53.388;-1.504;2023-09-30T03:51:54;10.43;;;2.17;;
67997;SDS011;54773;53.388;-1.504;2023-09-30T03:54:38;7.88;;;1.88;;
67997;SDS011;54773;53.388;-1.504;2023-09-30T03:57:25;10.23;;;2.13;;
67997;SDS011;54773;53.388;-1.504;2023-09-30T04:00:10;10.98;;;2.60;;
67997;SDS011;54773;53.388;-1.504;2023-09-30T04:03:05;10.77;;;2.33;;
67997;SDS011;54773;53.388;-1.504;2023-09-30T04:05:49;12.43;;;2.25;;
67997;SDS011;54773;53.388;-1.504;2023-09-30T04:08:34;11.20;;;2.60;;
67997;SDS011;54773;53.388;-1.504;2023-09-30T04:11:19;8.70;;;2.05;;
67997;SDS011;54773;53.388;-1.504;2023-09-30T04:14:07;8.57;;;2.15;;
67997;SDS011;54773;53.388;-1.504;2023-09-30T04:16:52;11.23;;;2.20;;
67997;SDS011;54773;53.388;-1.504;2023-09-30T04:19:38;10.40;;;2.13;;
67997;SDS011;54773;53.388;-1.504;2023-09-30T04:22:22;8.27;;;2.00;;
67997;SDS011;54773;53.388;-1.504;2023-09-30T04:25:08;9.90;;;3.20;;
67997;SDS011;54773;53.388;-1.504;2023-09-30T04:27:54;12.30;;;2.55;;
67997;SDS011;54773;53.388;-1.504;2023-09-30T04:30:38;11.57;;;2.67;;
67997;SDS011;54773;53.388;-1.504;2023-09-30T04:33:22;15.80;;;2.63;;
67997;SDS011;54773;53.388;-1.504;2023-09-30T04:36:11;10.52;;;2.58;;
67997;SDS011;54773;53.388;-1.504;2023-09-30T04:38:57;11.40;;;2.58;;
67997;SDS011;54773;53.388;-1.504;2023-09-30T04:41:44;11.63;;;2.08;;
67997;SDS011;54773;53.388;-1.504;2023-09-30T04:44:30;8.75;;;2.10;;
67997;SDS011;54773;53.388;-1.504;2023-09-30T04:47:14;11.77;;;2.28;;
67997;SDS011;54773;53.388;-1.504;2023-09-30T04:49:58;10.63;;;2.35;;
67997;SDS011;54773;53.388;-1.504;2023-09-30T04:52:43;8.55;;;2.05;;
67997;SDS011;54773;53.388;-1.504;2023-09-30T04:55:28;8.32;;;2.60;;
67997;SDS011;54773;53.388;-1.504;2023-09-30T04:58:12;8.25;;;2.53;;
67997;SDS011;54773;53.388;-1.504;2023-09-30T05:03:41;13.50;;;2.10;;
67997;SDS011;54773;53.388;-1.504;2023-09-30T05:06:26;12.30;;;2.40;;
67997;SDS011;54773;53.388;-1.504;2023-09-30T05:09:10;6.83;;;2.20;;
67997;SDS011;54773;53.388;-1.504;2023-09-30T05:11:56;7.13;;;1.90;;
67997;SDS011;54773;53.388;-1.504;2023-09-30T05:14:40;13.60;;;2.58;;
67997;SDS011;54773;53.388;-1.504;2023-09-30T05:17:24;6.43;;;1.97;;
67997;SDS011;54773;53.388;-1.504;2023-09-30T05:20:08;6.07;;;2.40;;
67997;SDS011;54773;53.388;-1.504;2023-09-30T05:22:52;10.57;;;2.10;;
67997;SDS011;54773;53.388;-1.504;2023-09-30T05:25:43;10.30;;;2.22;;
67997;SDS011;54773;53.388;-1.504;2023-09-30T05:28:27;9.07;;;2.27;;
67997;SDS011;54773;53.388;-1.504;2023-09-30T05:31:11;10.02;;;2.42;;
67997;SDS011;54773;53.388;-1.504;2023-09-30T05:33:56;13.27;;;2.88;;
67997;SDS011;54773;53.388;-1.504;2023-09-30T05:36:40;11.38;;;2.30;;
67997;SDS011;54773;53.388;-1.504;2023-09-30T05:39:24;11.87;;;2.40;;
67997;SDS011;54773;53.388;-1.504;2023-09-30T05:42:09;7.47;;;2.28;;
67997;SDS011;54773;53.388;-1.504;2023-09-30T05:44:56;9.98;;;2.60;;
67997;SDS011;54773;53.388;-1.504;2023-09-30T05:47:40;8.20;;;2.20;;
67997;SDS011;54773;53.388;-1.504;2023-09-30T05:50:24;8.27;;;2.20;;
67997;SDS011;54773;53.388;-1.504;2023-09-30T05:53:09;8.63;;;2.05;;
67997;SDS011;54773;53.388;-1.504;2023-09-30T05:55:57;13.77;;;2.97;;
67997;SDS011;54773;53.388;-1.504;2023-09-30T05:58:43;10.88;;;3.00;;
67997;SDS011;54773;53.388;-1.504;2023-09-30T06:01:27;8.85;;;2.63;;
67997;SDS011;54773;53.388;-1.504;2023-09-30T06:04:11;9.25;;;2.45;;
67997;SDS011;54773;53.388;-1.504;2023-09-30T06:06:55;8.25;;;2.10;;
67997;SDS011;54773;53.388;-1.504;2023-09-30T06:09:40;7.50;;;2.40;;
67997;SDS011;54773;53.388;-1.504;2023-09-30T06:12:24;7.40;;;2.30;;
67997;SDS011;54773;53.388;-1.504;2023-09-30T06:15:08;10.27;;;3.53;;
67997;SDS011;54773;53.388;-1.504;2023-09-30T06:17:54;8.95;;;3.13;;
67997;SDS011;54773;53.388;-1.504;2023-09-30T06:20:39;13.00;;;2.75;;
67997;SDS011;54773;53.388;-1.504;2023-09-30T06:23:23;8.88;;;2.10;;
67997;SDS011;54773;53.388;-1.504;2023-09-30T06:26:06;10.82;;;2.20;;
67997;SDS011;54773;53.388;-1.504;2023-09-30T06:28:53;12.43;;;3.35;;
67997;SDS011;54773;53.388;-1.504;2023-09-30T06:31:38;7.22;;;2.28;;
67997;SDS011;54773;53.388;-1.504;2023-09-30T06:34:23;9.65;;;2.72;;
67997;SDS011;54773;53.388;-1.504;2023-09-30T06:37:07;9.10;;;2.70;;
67997;SDS011;54773;53.388;-1.504;2023-09-30T06:39:52;7.65;;;2.42;;
67997;SDS011;54773;53.388;-1.504;2023-09-30T06:42:36;6.38;;;2.38;;
67997;SDS011;54773;53.388;-1.504;2023-09-30T06:45:21;11.98;;;3.65;;
67997;SDS011;54773;53.388;-1.504;2023-09-30T06:48:05;12.50;;;3.80;;
67997;SDS011;54773;53.388;-1.504;2023-09-30T06:50:49;13.97;;;5.10;;
67997;SDS011;54773;53.388;-1.504;2023-09-30T06:53:33;10.90;;;3.33;;
67997;SDS011;54773;53.388;-1.504;2023-09-30T06:56:17;8.65;;;2.55;;
67997;SDS011;54773;53.388;-1.504;2023-09-30T06:59:01;6.47;;;2.47;;
67997;SDS011;54773;53.388;-1.504;2023-09-30T07:01:45;12.25;;;2.75;;
67997;SDS011;54773;53.388;-1.504;2023-09-30T07:04:29;12.88;;;2.70;;
67997;SDS011;54773;53.388;-1.504;2023-09-30T07:07:13;7.13;;;2.42;;
67997;SDS011;54773;53.388;-1.504;2023-09-30T07:09:59;8.05;;;3.15;;
67997;SDS011;54773;53.388;-1.504;2023-09-30T07:12:43;9.75;;;3.40;;
67997;SDS011;54773;53.388;-1.504;2023-09-30T07:15:27;10.03;;;2.63;;
67997;SDS011;54773;53.388;-1.504;2023-09-30T07:18:11;9.15;;;2.53;;
67997;SDS011;54773;53.388;-1.504;2023-09-30T07:20:56;8.27;;;2.50;;
67997;SDS011;54773;53.388;-1.504;2023-09-30T07:23:40;8.23;;;2.58;;
67997;SDS011;54773;53.388;-1.504;2023-09-30T07:26:24;5.75;;;1.80;;
67997;SDS011;54773;53.388;-1.504;2023-09-30T07:29:09;7.95;;;2.20;;
67997;SDS011;54773;53.388;-1.504;2023-09-30T07:31:53;8.48;;;2.28;;
67997;SDS011;54773;53.388;-1.504;2023-09-30T07:34:38;5.72;;;1.98;;
67997;SDS011;54773;53.388;-1.504;2023-09-30T07:37:22;5.68;;;1.88;;
67997;SDS011;54773;53.388;-1.504;2023-09-30T07:40:06;11.48;;;2.40;;
67997;SDS011;54773;53.388;-1.504;2023-09-30T07:42:50;7.85;;;2.10;;
67997;SDS011;54773;53.388;-1.504;2023-09-30T07:45:35;8.70;;;3.10;;
67997;SDS011;54773;53.388;-1.504;2023-09-30T07:48:19;7.95;;;2.50;;
67997;SDS011;54773;53.388;-1.504;2023-09-30T07:51:03;10.50;;;2.58;;
67997;SDS011;54773;53.388;-1.504;2023-09-30T07:53:50;9.77;;;2.30;;
67997;SDS011;54773;53.388;-1.504;2023-09-30T07:56:34;11.25;;;3.45;;
67997;SDS011;54773;53.388;-1.504;2023-09-30T07:59:18;9.73;;;2.50;;
67997;SDS011;54773;53.388;-1.504;2023-09-30T08:02:02;9.02;;;2.42;;
67997;SDS011;54773;53.388;-1.504;2023-09-30T08:04:48;8.13;;;2.47;;
67997;SDS011;54773;53.388;-1.504;2023-09-30T08:07:32;7.00;;;2.53;;
67997;SDS011;54773;53.388;-1.504;2023-09-30T08:10:16;9.75;;;2.70;;
67997;SDS011;54773;53.388;-1.504;2023-09-30T08:13:01;11.70;;;2.35;;
67997;SDS011;54773;53.388;-1.504;2023-09-30T08:15:46;8.00;;;2.70;;
67997;SDS011;54773;53.388;-1.504;2023-09-30T08:18:30;7.83;;;2.53;;
67997;SDS011;54773;53.388;-1.504;2023-09-30T08:21:14;8.45;;;3.10;;
67997;SDS011;54773;53.388;-1.504;2023-09-30T08:23:58;9.73;;;2.73;;
67997;SDS011;54773;53.388;-1.504;2023-09-30T08:26:42;10.18;;;2.78;;
67997;SDS011;54773;53.388;-1.504;2023-09-30T08:29:27;7.50;;;2.30;;
67997;SDS011;54773;53.388;-1.504;2023-09-30T08:32:14;6.90;;;2.13;;
67997;SDS011;54773;53.388;-1.504;2023-09-30T08:34:58;9.95;;;2.60;;
67997;SDS011;54773;53.388;-1.504;2023-09-30T08:37:42;12.07;;;2.77;;
67997;SDS011;54773;53.388;-1.504;2023-09-30T08:40:26;8.38;;;2.50;;
67997;SDS011;54773;53.388;-1.504;2023-09-30T08:43:16;5.35;;;1.98;;
67997;SDS011;54773;53.388;-1.504;2023-09-30T08:46:04;8.63;;;2.00;;
67997;SDS011;54773;53.388;-1.504;2023-09-30T08:48:50;7.20;;;2.10;;
67997;SDS011;54773;53.388;-1.504;2023-09-30T08:54:19;6.90;;;2.60;;
67997;SDS011;54773;53.388;-1.504;2023-09-30T08:57:03;7.15;;;2.38;;
67997;SDS011;54773;53.388;-1.504;2023-09-30T08:59:48;10.60;;;2.30;;
67997;SDS011;54773;53.388;-1.504;2023-09-30T09:02:34;8.05;;;1.80;;
67997;SDS011;54773;53.388;-1.504;2023-09-30T09:05:18;8.23;;;1.85;;
67997;SDS011;54773;53.388;-1.504;2023-09-30T09:08:05;7.20;;;1.85;;
67997;SDS011;54773;53.388;-1.504;2023-09-30T09:11:07;11.10;;;1.90;;
67997;SDS011;54773;53.388;-1.504;2023-09-30T09:13:53;7.25;;;1.83;;
67997;SDS011;54773;53.388;-1.504;2023-09-30T09:16:54;8.80;;;2.08;;
67997;SDS011;54773;53.388;-1.504;2023-09-30T09:19:39;6.10;;;1.83;;
67997;SDS011;54773;53.388;-1.504;2023-09-30T09:22:23;8.80;;;1.90;;
67997;SDS011;54773;53.388;-1.504;2023-09-30T09:25:07;6.47;;;1.95;;
67997;SDS011;54773;53.388;-1.504;2023-09-30T09:27:51;7.45;;;2.22;;
67997;SDS011;54773;53.388;-1.504;2023-09-30T09:30:39;7.32;;;2.13;;
67997;SDS011;54773;53.388;-1.504;2023-09-30T09:33:31;10.65;;;2.25;;
67997;SDS011;54773;53.388;-1.504;2023-09-30T09:36:22;7.97;;;2.10;;
67997;SDS011;54773;53.388;-1.504;2023-09-30T09:39:29;6.30;;;1.70;;
67997;SDS011;54773;53.388;-1.504;2023-09-30T09:42:49;6.45;;;1.77;;
67997;SDS011;54773;53.388;-1.504;2023-09-30T09:45:27;9.55;;;2.10;;
67997;SDS011;54773;53.388;-1.504;2023-09-30T09:48:11;9.10;;;1.70;;
67997;SDS011;54773;53.388;-1.504;2023-09-30T09:50:56;8.75;;;2.00;;
67997;SDS011;54773;53.388;-1.504;2023-09-30T09:53:40;7.43;;;1.75;;
67997;SDS011;54773;53.388;-1.504;2023-09-30T09:56:25;8.88;;;2.15;;
67997;SDS011;54773;53.388;-1.504;2023-09-30T09:59:11;8.25;;;1.40;;
67997;SDS011;54773;53.388;-1.504;2023-09-30T10:01:56;4.45;;;1.40;;
67997;SDS011;54773;53.388;-1.504;2023-09-30T10:04:41;4.43;;;1.20;;
67997;SDS011;54773;53.388;-1.504;2023-09-30T10:07:28;8.75;;;1.40;;
67997;SDS011;54773;53.388;-1.504;2023-09-30T10:10:18;6.85;;;1.60;;
67997;SDS011;54773;53.388;-1.504;2023-09-30T10:13:05;5.30;;;1.50;;
67997;SDS011;54773;53.388;-1.504;2023-09-30T10:15:49;7.97;;;1.75;;
67997;SDS011;54773;53.388;-1.504;2023-09-30T10:18:42;5.32;;;1.50;;
67997;SDS011;54773;53.388;-1.504;2023-09-30T10:28:34;8.20;;;1.73;;
67997;SDS011;54773;53.388;-1.504;2023-09-30T10:31:22;5.72;;;1.50;;
67997;SDS011;54773;53.388;-1.504;2023-09-30T10:36:54;7.93;;;2.20;;
67997;SDS011;54773;53.388;-1.504;2023-09-30T10:42:48;7.82;;;1.77;;
67997;SDS011;54773;53.388;-1.504;2023-09-30T10:51:19;6.53;;;2.40;;
67997;SDS011;54773;53.388;-1.504;2023-09-30T10:54:06;10.98;;;2.17;;
67997;SDS011;54773;53.388;-1.504;2023-09-30T10:56:50;4.50;;;1.85;;
67997;SDS011;54773;53.388;-1.504;2023-09-30T10:59:38;7.00;;;2.03;;
67997;SDS011;54773;53.388;-1.504;2023-09-30T11:02:22;6.63;;;2.15;;
67997;SDS011;54773;53.388;-1.504;2023-09-30T11:05:09;6.93;;;2.15;;
67997;SDS011;54773;53.388;-1.504;2023-09-30T11:07:55;9.43;;;2.47;;
67997;SDS011;54773;53.388;-1.504;2023-09-30T11:10:49;8.55;;;2.15;;
67997;SDS011;54773;53.388;-1.504;2023-09-30T11:13:36;8.40;;;2.20;;
67997;SDS011;54773;53.388;-1.504;2023-09-30T11:16:25;8.35;;;2.70;;
67997;SDS011;54773;53.388;-1.504;2023-09-30T11:19:13;9.20;;;2.63;;
67997;SDS011;54773;53.388;-1.504;2023-09-30T11:21:56;9.15;;;2.58;;
67997;SDS011;54773;53.388;-1.504;2023-09-30T11:24:44;7.70;;;2.90;;
67997;SDS011;54773;53.388;-1.504;2023-09-30T11:27:30;6.85;;;3.15;;
67997;SDS011;54773;53.388;-1.504;2023-09-30T11:30:15;4.88;;;2.17;;
67997;SDS011;54773;53.388;-1.504;2023-09-30T11:32:59;4.88;;;2.10;;
67997;SDS011;54773;53.388;-1.504;2023-09-30T11:36:03;8.48;;;2.67;;
67997;SDS011;54773;53.388;-1.504;2023-09-30T11:38:47;7.78;;;2.38;;
67997;SDS011;54773;53.388;-1.504;2023-09-30T11:41:33;6.05;;;2.40;;
67997;SDS011;54773;53.388;-1.504;2023-09-30T11:44:19;6.43;;;1.65;;
67997;SDS011;54773;53.388;-1.504;2023-09-30T11:47:06;7.63;;;1.90;;
67997;SDS011;54773;53.388;-1.504;2023-09-30T11:49:52;10.85;;;2.17;;
67997;SDS011;54773;53.388;-1.504;2023-09-30T11:52:44;13.55;;;2.83;;
67997;SDS011;54773;53.388;-1.504;2023-09-30T11:55:30;7.35;;;1.70;;
67997;SDS011;54773;53.388;-1.504;2023-09-30T11:58:14;4.47;;;1.60;;
67997;SDS011;54773;53.388;-1.504;2023-09-30T12:01:02;7.35;;;1.67;;
67997;SDS011;54773;53.388;-1.504;2023-09-30T12:03:46;8.52;;;1.67;;
67997;SDS011;54773;53.388;-1.504;2023-09-30T12:06:31;7.65;;;1.70;;
67997;SDS011;54773;53.388;-1.504;2023-09-30T12:09:24;7.15;;;1.85;;
67997;SDS011;54773;53.388;-1.504;2023-09-30T12:12:13;8.90;;;2.80;;
67997;SDS011;54773;53.388;-1.504;2023-09-30T12:15:01;11.60;;;2.50;;
67997;SDS011;54773;53.388;-1.504;2023-09-30T12:17:46;10.35;;;2.05;;
67997;SDS011;54773;53.388;-1.504;2023-09-30T12:20:31;6.93;;;2.42;;
67997;SDS011;54773;53.388;-1.504;2023-09-30T12:23:19;11.82;;;2.28;;
67997;SDS011;54773;53.388;-1.504;2023-09-30T12:26:05;8.70;;;2.47;;
67997;SDS011;54773;53.388;-1.504;2023-09-30T12:28:49;10.15;;;2.42;;
67997;SDS011;54773;53.388;-1.504;2023-09-30T12:31:34;7.22;;;2.22;;
67997;SDS011;54773;53.388;-1.504;2023-09-30T12:34:18;7.38;;;2.85;;
67997;SDS011;54773;53.388;-1.504;2023-09-30T12:37:04;9.18;;;2.60;;
67997;SDS011;54773;53.388;-1.504;2023-09-30T12:39:51;9.55;;;2.67;;
67997;SDS011;54773;53.388;-1.504;2023-09-30T12:42:36;7.50;;;2.70;;
67997;SDS011;54773;53.388;-1.504;2023-09-30T12:45:21;10.70;;;2.90;;
67997;SDS011;54773;53.388;-1.504;2023-09-30T12:50:51;10.00;;;2.80;;
67997;SDS011;54773;53.388;-1.504;2023-09-30T12:53:41;10.13;;;2.92;;
67997;SDS011;54773;53.388;-1.504;2023-09-30T12:56:25;13.07;;;3.33;;
67997;SDS011;54773;53.388;-1.504;2023-09-30T12:59:09;11.68;;;3.30;;
67997;SDS011;54773;53.388;-1.504;2023-09-30T13:01:54;12.60;;;3.30;;
67997;SDS011;54773;53.388;-1.504;2023-09-30T13:04:40;11.85;;;3.17;;
67997;SDS011;54773;53.388;-1.504;2023-09-30T13:07:27;12.85;;;3.63;;
67997;SDS011;54773;53.388;-1.504;2023-09-30T13:10:12;9.80;;;3.33;;
67997;SDS011;54773;53.388;-1.504;2023-09-30T13:13:00;9.82;;;3.25;;
67997;SDS011;54773;53.388;-1.504;2023-09-30T13:15:44;10.90;;;2.90;;
67997;SDS011;54773;53.388;-1.504;2023-09-30T13:18:28;10.77;;;2.97;;
67997;SDS011;54773;53.388;-1.504;2023-09-30T13:23:57;5.32;;;2.65;;
67997;SDS011;54773;53.388;-1.504;2023-09-30T13:26:45;8.73;;;2.75;;
67997;SDS011;54773;53.388;-1.504;2023-09-30T13:29:30;10.77;;;2.97;;
67997;SDS011;54773;53.388;-1.504;2023-09-30T13:32:14;8.88;;;3.30;;
67997;SDS011;54773;53.388;-1.504;2023-09-30T13:34:59;8.23;;;3.00;;
67997;SDS011;54773;53.388;-1.504;2023-09-30T13:37:44;8.45;;;2.92;;
67997;SDS011;54773;53.388;-1.504;2023-09-30T13:40:28;11.00;;;3.60;;
67997;SDS011;54773;53.388;-1.504;2023-09-30T13:43:13;8.80;;;3.65;;
67997;SDS011;54773;53.388;-1.504;2023-09-30T13:48:41;10.63;;;3.33;;
67997;SDS011;54773;53.388;-1.504;2023-09-30T13:51:26;12.38;;;3.45;;
67997;SDS011;54773;53.388;-1.504;2023-09-30T13:54:10;9.13;;;3.15;;
67997;SDS011;54773;53.388;-1.504;2023-09-30T13:56:55;12.45;;;3.42;;
67997;SDS011;54773;53.388;-1.504;2023-09-30T13:59:39;8.43;;;3.30;;
67997;SDS011;54773;53.388;-1.504;2023-09-30T14:02:25;11.93;;;3.47;;
67997;SDS011;54773;53.388;-1.504;2023-09-30T14:05:10;11.50;;;3.20;;
67997;SDS011;54773;53.388;-1.504;2023-09-30T14:07:55;11.73;;;3.40;;
67997;SDS011;54773;53.388;-1.504;2023-09-30T14:10:39;11.88;;;3.25;;
67997;SDS011;54773;53.388;-1.504;2023-09-30T14:13:23;11.68;;;3.50;;
67997;SDS011;54773;53.388;-1.504;2023-09-30T14:16:12;10.38;;;2.80;;
67997;SDS011;54773;53.388;-1.504;2023-09-30T14:18:57;9.68;;;3.03;;
67997;SDS011;54773;53.388;-1.504;2023-09-30T14:21:44;10.00;;;3.15;;
67997;SDS011;54773;53.388;-1.504;2023-09-30T14:24:29;9.75;;;3.33;;
67997;SDS011;54773;53.388;-1.504;2023-09-30T14:27:20;11.73;;;4.25;;
67997;SDS011;54773;53.388;-1.504;2023-09-30T14:30:05;11.57;;;3.50;;
67997;SDS011;54773;53.388;-1.504;2023-09-30T14:32:55;11.88;;;2.83;;
67997;SDS011;54773;53.388;-1.504;2023-09-30T14:35:57;9.13;;;2.50;;
67997;SDS011;54773;53.388;-1.504;2023-09-30T14:38:42;7.70;;;2.58;;
67997;SDS011;54773;53.388;-1.504;2023-09-30T14:41:28;10.00;;;3.00;;
67997;SDS011;54773;53.388;-1.504;2023-09-30T14:44:12;9.67;;;2.53;;
67997;SDS011;54773;53.388;-1.504;2023-09-30T14:46:56;7.18;;;2.35;;
67997;SDS011;54773;53.388;-1.504;2023-09-30T14:49:41;8.20;;;2.75;;
67997;SDS011;54773;53.388;-1.504;2023-09-30T14:52:26;8.60;;;2.60;;
67997;SDS011;54773;53.388;-1.504;2023-09-30T14:55:11;8.15;;;2.47;;
67997;SDS011;54773;53.388;-1.504;2023-09-30T14:57:55;9.82;;;4.18;;
67997;SDS011;54773;53.388;-1.504;2023-09-30T15:00:45;8.73;;;3.42;;
67997;SDS011;54773;53.388;-1.504;2023-09-30T15:03:30;7.38;;;1.92;;
67997;SDS011;54773;53.388;-1.504;2023-09-30T15:06:18;6.88;;;2.58;;
67997;SDS011;54773;53.388;-1.504;2023-09-30T15:09:04;5.38;;;2.38;;
67997;SDS011;54773;53.388;-1.504;2023-09-30T15:11:56;8.82;;;3.50;;
67997;SDS011;54773;53.388;-1.504;2023-09-30T15:14:41;6.20;;;2.80;;
67997;SDS011;54773;53.388;-1.504;2023-09-30T15:17:26;6.75;;;2.50;;
67997;SDS011;54773;53.388;-1.504;2023-09-30T15:20:14;5.57;;;1.85;;
67997;SDS011;54773;53.388;-1.504;2023-09-30T15:23:01;6.00;;;2.50;;
67997;SDS011;54773;53.388;-1.504;2023-09-30T15:25:45;7.10;;;2.78;;
67997;SDS011;54773;53.388;-1.504;2023-09-30T15:28:30;7.47;;;2.70;;
67997;SDS011;54773;53.388;-1.504;2023-09-30T15:31:14;7.47;;;2.20;;
67997;SDS011;54773;53.388;-1.504;2023-09-30T15:33:58;7.10;;;4.47;;
67997;SDS011;54773;53.388;-1.504;2023-09-30T15:36:42;10.32;;;3.63;;
67997;SDS011;54773;53.388;-1.504;2023-09-30T15:39:28;8.90;;;3.28;;
67997;SDS011;54773;53.388;-1.504;2023-09-30T15:42:21;7.90;;;2.33;;
67997;SDS011;54773;53.388;-1.504;2023-09-30T15:45:08;5.15;;;2.53;;
67997;SDS011;54773;53.388;-1.504;2023-09-30T15:47:56;7.78;;;2.78;;
67997;SDS011;54773;53.388;-1.504;2023-09-30T15:50:43;7.78;;;2.30;;
67997;SDS011;54773;53.388;-1.504;2023-09-30T15:53:27;9.68;;;2.90;;
67997;SDS011;54773;53.388;-1.504;2023-09-30T15:56:12;15.77;;;6.53;;
67997;SDS011;54773;53.388;-1.504;2023-09-30T15:58:59;20.80;;;8.02;;
67997;SDS011;54773;53.388;-1.504;2023-09-30T16:01:43;30.02;;;13.10;;
67997;SDS011;54773;53.388;-1.504;2023-09-30T16:04:28;17.83;;;6.63;;
67997;SDS011;54773;53.388;-1.504;2023-09-30T16:07:15;12.82;;;6.63;;
67997;SDS011;54773;53.388;-1.504;2023-09-30T16:09:59;9.32;;;4.90;;
67997;SDS011;54773;53.388;-1.504;2023-09-30T16:12:44;12.57;;;8.40;;
67997;SDS011;54773;53.388;-1.504;2023-09-30T16:15:28;9.30;;;4.70;;
67997;SDS011;54773;53.388;-1.504;2023-09-30T16:18:12;14.40;;;9.23;;
67997;SDS011;54773;53.388;-1.504;2023-09-30T16:20:56;13.82;;;5.90;;
67997;SDS011;54773;53.388;-1.504;2023-09-30T16:23:40;13.10;;;7.50;;
67997;SDS011;54773;53.388;-1.504;2023-09-30T16:29:13;8.85;;;4.25;;
67997;SDS011;54773;53.388;-1.504;2023-09-30T16:31:59;13.85;;;5.53;;
67997;SDS011;54773;53.388;-1.504;2023-09-30T16:34:44;16.23;;;10.82;;
67997;SDS011;54773;53.388;-1.504;2023-09-30T16:37:28;17.67;;;8.32;;
67997;SDS011;54773;53.388;-1.504;2023-09-30T16:40:15;16.83;;;11.63;;
67997;SDS011;54773;53.388;-1.504;2023-09-30T16:42:59;12.70;;;7.68;;
67997;SDS011;54773;53.388;-1.504;2023-09-30T16:45:44;10.50;;;5.90;;
67997;SDS011;54773;53.388;-1.504;2023-09-30T16:48:29;9.52;;;5.88;;
67997;SDS011;54773;53.388;-1.504;2023-09-30T16:51:16;12.55;;;6.40;;
67997;SDS011;54773;53.388;-1.504;2023-09-30T16:54:01;15.15;;;6.93;;